Apple Valley, Minnesota
Current Conditions -  °F | °C
As of 9:28 AM on Friday 24 Oct 2014 (Local Time) from KLVN Reporting Station
NA  
Wind Chill: 11°   Ceiling: NA
Heat Index: 11°   Visibility: 10mi
Dew Point:   Wind: 3mph
Humidity: 88%   Direction: 130°SE
Pressure: 29.89"   Gusts: NA
Location:  44.74°N, 93.22°W
Report Text: KLVN 241428Z AUTO 13003KT 10SM 11/09 A2989 RMK AO2
Loading
Personal Weather Stations






























Interactive Weather Map
Tropical Storm Tracking
New forecast layout! Learn more

10-Day Weather Forecast

Advertisements
Track Severe Weather on mobile